Mt Samurai — A8PX7 — position and weather

sailwx.info

Track history (hours):
 
Tides and Currents Weather Stations Pressure Air Temp Water Temp Dewpoint Dewpoint Depression Visibility Wind Speed Wind Dir Waves Ship Positions

Mt Samurai

Last reported at 2018-Jan-10 09:21 UTC. Time now 2018-Feb-20 08:11 UTC.
Position S 30°22' E 031°00'.
Warning: this ship's position is 40 days out of date.

Length 274 m; draft 15 m.

Type: Tanker. MMSI: 636013852.

Date/timePositionNaut miles runAvg speedWind from/ knotsBaromVisibWave heightAir tempDewpointWater temp
2018-Jan-10 09:21S 30°22' E 031°00'611.8
2018-Jan-10 08:49S 30°16' E 031°02'411.8
2018-Jan-10 08:30S 30°13' E 031°04'611.6
2018-Jan-10 08:00S 30°07' E 031°06'611.3
2018-Jan-10 07:30S 30°02' E 031°08'611.2
2018-Jan-10 07:00S 29°57' E 031°10'5 9.6
2018-Jan-10 06:30S 29°52' E 031°12'2 4.0
2018-Jan-10 06:00S 29°51' E 031°14'5 9.2
2018-Jan-10 05:30S 29°51' E 031°19'612.0
2018-Jan-10 05:00S 29°50' E 031°26'612.5
2018-Jan-10 04:30S 29°49' E 031°33'612.9
2018-Jan-10 04:00S 29°48' E 031°41'713.0
2018-Jan-10 03:30S 29°47' E 031°48'613.0
2018-Jan-10 03:00S 29°45' E 031°55'  
Track history (hours):
 
Tides and Currents Weather Stations Pressure Air Temp Water Temp Dewpoint Dewpoint Depression Visibility Wind Speed Wind Dir Waves Ship Positions

Mt Samurai

Last reported at 2018-Jan-10 09:21 UTC. Time now 2018-Feb-20 08:11 UTC.
Position S 30°22' E 031°00'.
Warning: this ship's position is 40 days out of date.

Length 274 m; draft 15 m.

Type: Tanker. MMSI: 636013852.

Date/timePositionNaut miles runAvg speedWind from/ knotsBaromVisibWave heightAir tempDewpointWater temp
2018-Jan-10 09:21S 30°22' E 031°00'611.8
2018-Jan-10 08:49S 30°16' E 031°02'411.8
2018-Jan-10 08:30S 30°13' E 031°04'611.6
2018-Jan-10 08:00S 30°07' E 031°06'611.3
2018-Jan-10 07:30S 30°02' E 031°08'611.2
2018-Jan-10 07:00S 29°57' E 031°10'5 9.6
2018-Jan-10 06:30S 29°52' E 031°12'2 4.0
2018-Jan-10 06:00S 29°51' E 031°14'5 9.2
2018-Jan-10 05:30S 29°51' E 031°19'612.0
2018-Jan-10 05:00S 29°50' E 031°26'612.5
2018-Jan-10 04:30S 29°49' E 031°33'612.9
2018-Jan-10 04:00S 29°48' E 031°41'713.0
2018-Jan-10 03:30S 29°47' E 031°48'613.0
2018-Jan-10 03:00S 29°45' E 031°55'  

Dump ship's entire track history